Time;durP1;ratioP1;P1;durP2;ratioP2;P2;SDS_P1;SDS_P2;PMS_P1;PMS_P2;Temp;Humidity;BMP_temperature;BMP_pressure;BME280_temperature;BME280_humidity;BME280_pressure;Samples;Min_cycle;Max_cycle;Signal;HPM_P1;HPM_P2
2022/07/01 00:00:42;;;;;;;3.03;2.83;;;27.10;77.80;;;;;;5083863;28;20535;-65
2022/07/01 00:03:13;;;;;;;3.20;3.00;;;27.10;77.80;;;;;;5083374;28;20616;-65
2022/07/01 00:05:44;;;;;;;2.90;2.70;;;27.00;77.30;;;;;;5082306;28;20533;-65
2022/07/01 00:08:16;;;;;;;2.77;2.57;;;27.00;79.10;;;;;;5081691;28;20562;-65
2022/07/01 00:10:47;;;;;;;2.93;2.73;;;27.10;78.00;;;;;;5083057;28;20475;-66
2022/07/01 00:13:18;;;;;;;2.43;2.23;;;27.20;79.30;;;;;;5072412;28;20448;-65
2022/07/01 00:15:49;;;;;;;3.23;3.03;;;27.30;78.50;;;;;;5083500;28;20454;-65
2022/07/01 00:18:21;;;;;;;2.80;2.60;;;27.30;76.40;;;;;;5076480;28;20527;-64
2022/07/01 00:20:52;;;;;;;2.60;2.40;;;27.30;78.90;;;;;;5082703;28;20474;-65
2022/07/01 00:23:24;;;;;;;2.70;2.50;;;27.30;77.80;;;;;;5083993;28;20507;-66
2022/07/01 00:25:55;;;;;;;3.07;2.87;;;27.30;78.10;;;;;;5083248;28;20508;-66
2022/07/01 00:28:26;;;;;;;3.50;3.20;;;27.40;78.10;;;;;;5070180;28;20495;-64
2022/07/01 00:30:57;;;;;;;3.10;2.90;;;27.50;78.30;;;;;;5083890;28;20481;-67
2022/07/01 00:33:28;;;;;;;2.80;2.60;;;27.50;77.20;;;;;;5083707;28;20500;-64
2022/07/01 00:36:00;;;;;;;2.63;2.43;;;27.40;78.50;;;;;;5081999;28;20479;-64
2022/07/01 00:38:33;;;;;;;2.67;2.47;;;27.30;76.90;;;;;;5083628;28;20558;-65
2022/07/01 00:41:04;;;;;;;3.50;3.20;;;27.20;78.80;;;;;;5083649;28;20527;-65
2022/07/01 00:43:39;;;;;;;3.10;2.80;;;27.20;78.70;;;;;;5082435;28;20895;-65
2022/07/01 00:46:26;;;;;;;2.80;2.60;;;27.30;78.30;;;;;;5082698;28;20445;-64
2022/07/01 00:49:00;;;;;;;2.63;2.43;;;27.10;77.10;;;;;;5083331;28;20469;-65
2022/07/01 00:51:31;;;;;;;3.00;2.80;;;27.10;76.50;;;;;;5082467;28;20581;-64
2022/07/01 00:54:03;;;;;;;2.80;2.60;;;27.00;78.30;;;;;;5083240;28;20465;-65
2022/07/01 00:56:34;;;;;;;3.27;3.07;;;27.00;78.30;;;;;;5068173;28;20459;-66
2022/07/01 00:59:05;;;;;;;2.83;2.63;;;27.10;78.50;;;;;;5083082;28;20458;-65
2022/07/01 01:01:36;;;;;;;2.73;2.53;;;27.20;78.30;;;;;;5083590;28;20462;-66
2022/07/01 01:04:07;;;;;;;2.90;2.70;;;27.20;77.70;;;;;;5082242;28;20523;-64
2022/07/01 01:06:38;;;;;;;2.77;2.57;;;27.10;77.20;;;;;;5082099;28;20466;-65
2022/07/01 01:09:10;;;;;;;2.67;2.47;;;27.10;77.10;;;;;;5082779;28;20459;-67
2022/07/01 01:11:41;;;;;;;3.03;2.80;;;27.00;78.10;;;;;;5082959;28;20939;-64
2022/07/01 01:14:13;;;;;;;3.10;2.90;;;26.90;77.70;;;;;;5082279;28;20458;-64
2022/07/01 01:16:44;;;;;;;2.57;2.37;;;26.90;78.30;;;;;;5082621;28;20465;-64
2022/07/01 01:19:15;;;;;;;2.87;2.67;;;26.90;80.40;;;;;;5082532;28;20454;-64
2022/07/01 01:21:48;;;;;;;2.33;2.20;;;26.90;77.90;;;;;;5082245;28;20587;-65
2022/07/01 01:24:18;;;;;;;2.70;2.50;;;26.90;79.50;;;;;;5082055;28;20474;-65
2022/07/01 01:26:49;;;;;;;2.50;2.30;;;26.80;79.40;;;;;;5082343;28;20534;-66
2022/07/01 01:29:20;;;;;;;2.93;2.73;;;26.90;81.30;;;;;;5082004;28;20453;-66
2022/07/01 01:31:51;;;;;;;3.03;2.83;;;26.80;79.70;;;;;;5081679;28;20493;-66
2022/07/01 01:34:23;;;;;;;2.83;2.63;;;26.70;78.80;;;;;;5078466;28;20467;-65
2022/07/01 01:36:56;;;;;;;2.40;2.30;;;26.60;79.60;;;;;;5079620;28;20466;-65
2022/07/01 01:39:27;;;;;;;2.87;2.67;;;26.60;80.00;;;;;;5082373;28;20468;-65
2022/07/01 01:41:57;;;;;;;2.53;2.33;;;26.60;81.20;;;;;;5079794;28;20470;-65
2022/07/01 01:44:28;;;;;;;2.70;2.50;;;26.50;82.10;;;;;;5081024;28;20454;-66
2022/07/01 01:46:59;;;;;;;2.73;2.53;;;26.50;82.20;;;;;;5081538;28;20470;-66
2022/07/01 01:49:30;;;;;;;3.23;3.00;;;26.40;82.40;;;;;;5081807;28;20471;-64
2022/07/01 01:52:02;;;;;;;2.67;2.47;;;26.40;83.00;;;;;;5080977;28;20500;-65
2022/07/01 01:54:35;;;;;;;2.70;2.50;;;26.30;83.20;;;;;;5080013;28;20560;-66
2022/07/01 01:57:07;;;;;;;3.00;2.80;;;26.20;83.50;;;;;;5080679;28;20464;-66
2022/07/01 01:59:38;;;;;;;2.73;2.53;;;26.20;83.70;;;;;;5080364;28;20547;-68
2022/07/01 02:02:08;;;;;;;2.60;2.40;;;26.20;83.00;;;;;;5081013;28;20468;-66
2022/07/01 02:04:39;;;;;;;2.70;2.50;;;26.10;83.40;;;;;;5081186;28;21230;-65
2022/07/01 02:07:13;;;;;;;2.90;2.60;;;26.10;84.10;;;;;;5081717;28;20473;-65
2022/07/01 02:09:45;;;;;;;3.20;3.00;;;26.00;82.70;;;;;;5081773;28;20914;-65
2022/07/01 02:12:16;;;;;;;6.57;2.70;;;25.90;84.00;;;;;;5080856;28;20508;-64
2022/07/01 02:14:47;;;;;;;3.30;3.00;;;26.00;83.10;;;;;;5080855;28;20457;-65
2022/07/01 02:17:18;;;;;;;3.03;2.83;;;25.80;82.70;;;;;;5081557;28;20465;-64
2022/07/01 02:19:53;;;;;;;2.77;2.57;;;25.70;84.40;;;;;;5081103;28;20490;-64
2022/07/01 02:22:29;;;;;;;3.00;2.80;;;25.70;83.30;;;;;;5080827;28;20473;-65
2022/07/01 02:24:59;;;;;;;2.47;2.27;;;25.60;84.50;;;;;;5079342;28;20490;-64
2022/07/01 02:27:30;;;;;;;2.77;2.57;;;25.50;86.00;;;;;;5081321;28;20457;-64
2022/07/01 02:30:01;;;;;;;2.20;2.03;;;25.40;87.20;;;;;;5079314;28;20463;-65
2022/07/01 02:32:35;;;;;;;2.90;2.70;;;25.40;87.90;;;;;;5081332;28;20504;-64
2022/07/01 02:35:06;;;;;;;2.80;2.60;;;25.30;88.20;;;;;;5079069;28;20568;-63
2022/07/01 02:37:39;;;;;;;2.73;2.53;;;25.30;87.00;;;;;;5078300;28;20466;-63
2022/07/01 02:40:11;;;;;;;2.67;2.47;;;25.20;87.60;;;;;;5079164;28;20464;-64
2022/07/01 02:42:42;;;;;;;3.47;3.17;;;25.10;90.10;;;;;;5075746;28;20474;-63
2022/07/01 02:45:13;;;;;;;3.00;2.80;;;25.00;90.80;;;;;;5081037;28;20455;-63
2022/07/01 02:47:45;;;;;;;2.90;2.70;;;25.00;91.00;;;;;;5080898;28;20436;-64
2022/07/01 02:50:16;;;;;;;2.90;2.70;;;24.90;91.50;;;;;;5080449;28;20456;-63
2022/07/01 02:52:54;;;;;;;3.20;3.00;;;24.80;91.90;;;;;;5081018;28;20571;-65
2022/07/01 02:55:25;;;;;;;2.90;2.70;;;24.70;92.20;;;;;;5080045;28;20468;-64
2022/07/01 02:57:56;;;;;;;3.27;3.07;;;24.60;91.90;;;;;;5080509;28;20485;-64
2022/07/01 03:00:27;;;;;;;3.20;2.93;;;24.60;92.10;;;;;;5072297;28;20487;-64
2022/07/01 03:02:58;;;;;;;3.20;3.00;;;24.50;92.30;;;;;;5081230;28;20472;-64
2022/07/01 03:05:28;;;;;;;2.93;2.70;;;24.40;92.80;;;;;;5079042;28;20459;-64
2022/07/01 03:08:01;;;;;;;2.93;2.73;;;24.30;93.00;;;;;;5079210;28;20463;-65
2022/07/01 03:10:32;;;;;;;3.30;2.60;;;24.20;92.90;;;;;;5078903;28;20582;-63
2022/07/01 03:13:02;;;;;;;2.80;2.60;;;24.20;93.20;;;;;;5079045;28;20483;-63
2022/07/01 03:15:33;;;;;;;2.60;2.40;;;24.10;93.60;;;;;;5080446;28;20446;-64
2022/07/01 03:18:04;;;;;;;3.07;2.83;;;24.00;93.60;;;;;;5076982;28;20530;-64
2022/07/01 03:20:35;;;;;;;2.83;2.63;;;23.90;94.30;;;;;;5080866;28;20458;-64
2022/07/01 03:23:07;;;;;;;2.77;2.57;;;23.90;93.90;;;;;;5082767;28;21284;-64
2022/07/01 03:25:38;;;;;;;2.83;2.63;;;23.90;93.80;;;;;;5072232;28;20483;-62
2022/07/01 03:28:09;;;;;;;2.70;2.50;;;23.80;94.00;;;;;;5076036;28;20467;-63
2022/07/01 03:30:40;;;;;;;3.10;2.80;;;23.80;94.40;;;;;;5079356;28;20506;-64
2022/07/01 03:33:10;;;;;;;2.20;2.10;;;23.70;94.80;;;;;;5080409;28;20495;-63
2022/07/01 03:35:45;;;;;;;2.70;2.50;;;23.60;95.10;;;;;;5078352;28;20477;-64
2022/07/01 03:38:17;;;;;;;2.43;2.23;;;23.50;95.10;;;;;;5080803;28;20454;-64
2022/07/01 03:40:48;;;;;;;3.30;3.10;;;23.40;95.90;;;;;;5082331;28;20467;-64
2022/07/01 03:43:19;;;;;;;3.40;3.10;;;23.30;96.30;;;;;;5082584;28;20470;-64
2022/07/01 03:45:50;;;;;;;3.50;3.20;;;23.30;96.40;;;;;;5083920;28;20470;-64
2022/07/01 03:48:21;;;;;;;3.53;3.23;;;23.20;96.80;;;;;;5084331;28;20950;-64
2022/07/01 03:50:52;;;;;;;3.10;2.83;;;23.20;97.00;;;;;;5082225;28;20485;-65
2022/07/01 03:56:12;;;;;;;3.60;3.30;;;23.00;97.30;;;;;;5081569;28;20556;-65
2022/07/01 03:58:43;;;;;;;3.23;3.00;;;23.00;97.50;;;;;;5084179;28;20512;-65
2022/07/01 04:01:15;;;;;;;2.60;2.40;;;22.90;97.60;;;;;;5083092;28;20459;-65
2022/07/01 04:03:45;;;;;;;3.00;2.80;;;22.90;98.20;;;;;;5083509;28;20479;-67
2022/07/01 04:06:17;;;;;;;2.40;2.20;;;22.80;98.60;;;;;;5081477;28;20573;-66
2022/07/01 04:08:50;;;;;;;2.63;2.43;;;22.70;98.90;;;;;;5083749;28;20468;-64
2022/07/01 04:11:21;;;;;;;3.00;2.80;;;22.60;99.30;;;;;;5081351;28;20460;-65
2022/07/01 04:13:52;;;;;;;3.30;2.73;;;22.60;99.50;;;;;;5082777;28;20491;-65
2022/07/01 04:16:25;;;;;;;3.00;2.77;;;22.50;99.90;;;;;;5081374;28;21080;-64
2022/07/01 04:18:56;;;;;;;2.83;2.63;;;22.40;99.90;;;;;;5083277;28;20463;-64
2022/07/01 04:24:16;;;;;;;2.70;2.50;;;22.30;99.90;;;;;;5082791;28;20584;-64
2022/07/01 04:26:47;;;;;;;2.43;2.33;;;22.20;99.90;;;;;;5079594;28;20541;-64
2022/07/01 04:29:18;;;;;;;2.43;2.23;;;22.20;99.90;;;;;;5082705;28;20464;-64
2022/07/01 04:31:49;;;;;;;3.30;3.00;;;22.10;99.90;;;;;;5078874;28;20448;-64
2022/07/01 04:34:20;;;;;;;2.73;2.53;;;22.00;99.90;;;;;;5082890;28;20501;-65
2022/07/01 04:36:51;;;;;;;2.47;2.27;;;22.00;99.90;;;;;;5079127;28;20542;-64
2022/07/01 04:39:23;;;;;;;2.30;2.13;;;21.90;99.90;;;;;;5082909;28;20475;-64
2022/07/01 04:42:03;;;;;;;2.60;2.40;;;21.80;99.90;;;;;;5081319;28;21005;-65
2022/07/01 04:44:35;;;;;;;2.87;2.67;;;21.80;99.90;;;;;;5081507;28;20542;-65
2022/07/01 04:47:12;;;;;;;3.50;2.90;;;21.80;99.90;;;;;;5079536;28;20455;-65
2022/07/01 04:49:43;;;;;;;2.97;2.77;;;21.70;99.90;;;;;;5082001;28;20542;-65
2022/07/01 04:52:14;;;;;;;2.97;2.77;;;21.60;99.90;;;;;;5079110;28;20460;-64
2022/07/01 04:54:47;;;;;;;2.50;2.30;;;21.50;99.90;;;;;;5080795;28;20803;-65
2022/07/01 04:57:18;;;;;;;3.10;2.77;;;21.40;99.90;;;;;;5078976;28;20943;-65
2022/07/01 04:59:48;;;;;;;2.83;2.63;;;21.40;99.90;;;;;;5081226;28;20469;-65
2022/07/01 05:02:19;;;;;;;2.17;2.07;;;21.40;99.90;;;;;;5079169;28;20426;-65
2022/07/01 05:04:50;;;;;;;2.33;2.13;;;21.30;99.90;;;;;;5081555;28;20832;-65
2022/07/01 05:07:30;;;;;;;2.90;2.60;;;21.30;99.90;;;;;;5082286;28;20477;-64
2022/07/01 05:10:03;;;;;;;2.53;2.20;;;21.20;99.90;;;;;;5081703;28;20463;-64
2022/07/01 05:12:34;;;;;;;3.20;2.90;;;21.20;99.90;;;;;;5069583;28;20459;-64
2022/07/01 05:15:05;;;;;;;3.13;2.83;;;21.20;99.90;;;;;;5076441;28;20502;-65
2022/07/01 05:23:12;;;;;;;2.80;2.60;;;21.00;99.90;;;;;;5073724;28;20922;-64
2022/07/01 05:25:44;;;;;;;2.80;2.60;;;20.90;99.90;;;;;;5080574;28;20473;-65
2022/07/01 05:28:15;;;;;;;2.90;2.70;;;20.80;99.90;;;;;;5080455;28;21208;-64
2022/07/01 05:30:46;;;;;;;2.30;2.10;;;20.70;99.90;;;;;;5081308;28;20484;-65
2022/07/01 05:33:17;;;;;;;3.40;3.20;;;20.70;99.90;;;;;;5081558;28;20471;-64
2022/07/01 05:35:49;;;;;;;2.57;2.37;;;20.60;99.90;;;;;;5075769;28;20586;-64
2022/07/01 05:38:19;;;;;;;3.87;2.20;;;20.50;99.90;;;;;;5081769;28;20459;-64
2022/07/01 05:40:52;;;;;;;2.57;2.37;;;20.50;99.90;;;;;;5080732;28;20455;-64
2022/07/01 05:43:23;;;;;;;2.50;2.30;;;20.50;99.90;;;;;;5081337;28;20455;-64
2022/07/01 05:45:53;;;;;;;3.43;3.10;;;20.40;99.90;;;;;;5079666;28;20542;-64
2022/07/01 05:48:25;;;;;;;3.00;2.70;;;20.40;99.90;;;;;;5079993;28;20494;-64
2022/07/01 05:50:55;;;;;;;2.67;2.47;;;20.30;99.90;;;;;;5080345;28;20434;-64
2022/07/01 05:53:26;;;;;;;2.93;2.73;;;20.20;99.90;;;;;;5063641;28;20569;-64
2022/07/01 05:55:59;;;;;;;3.20;3.00;;;20.20;99.90;;;;;;5081836;28;20606;-64
2022/07/01 05:58:29;;;;;;;4.00;2.57;;;20.10;99.90;;;;;;5066631;28;20426;-64
2022/07/01 06:01:00;;;;;;;3.03;2.63;;;20.00;99.90;;;;;;5081796;28;20533;-64
2022/07/01 06:03:38;;;;;;;3.90;3.50;;;20.00;99.90;;;;;;5080911;28;20455;-64
2022/07/01 06:06:09;;;;;;;2.77;2.57;;;19.90;99.90;;;;;;5081718;28;20478;-64
2022/07/01 06:08:40;;;;;;;3.00;2.70;;;19.80;99.90;;;;;;5080398;28;20444;-64
2022/07/01 06:11:12;;;;;;;2.90;2.60;;;19.70;99.90;;;;;;5075498;28;20922;-64
2022/07/01 06:13:43;;;;;;;3.23;2.93;;;19.70;99.90;;;;;;5080921;28;20989;-64
2022/07/01 06:16:14;;;;;;;3.30;3.00;;;19.60;99.90;;;;;;5073830;28;20533;-64
2022/07/01 06:18:45;;;;;;;2.53;2.33;;;19.60;99.90;;;;;;5081958;28;20448;-64
2022/07/01 06:21:16;;;;;;;2.73;2.50;;;19.50;99.90;;;;;;5077671;28;20555;-63
2022/07/01 06:23:47;;;;;;;3.13;2.50;;;19.40;99.90;;;;;;5081246;28;20422;-64
2022/07/01 06:26:20;;;;;;;2.93;2.63;;;19.40;99.90;;;;;;5079300;28;20484;-64
2022/07/01 06:28:51;;;;;;;2.60;2.40;;;19.30;99.90;;;;;;5081919;28;20436;-64
2022/07/01 06:31:23;;;;;;;3.10;2.80;;;19.20;99.90;;;;;;5080252;28;20547;-65
2022/07/01 06:33:54;;;;;;;3.00;2.57;;;19.20;99.90;;;;;;5080595;28;20441;-66
2022/07/01 06:36:24;;;;;;;3.80;3.40;;;19.20;99.90;;;;;;5078847;28;20483;-65
2022/07/01 06:38:55;;;;;;;3.63;2.60;;;19.20;99.90;;;;;;5081755;28;20573;-64
2022/07/01 06:41:28;;;;;;;3.20;2.90;;;19.10;99.90;;;;;;5081605;28;20430;-65
2022/07/01 06:43:59;;;;;;;2.80;2.60;;;19.00;99.90;;;;;;5081636;28;20434;-65
2022/07/01 06:46:31;;;;;;;5.83;3.37;;;18.90;99.90;;;;;;5080277;28;20846;-65
2022/07/01 06:49:02;;;;;;;3.10;2.57;;;18.90;99.90;;;;;;5081718;28;20453;-65
2022/07/01 06:51:32;;;;;;;2.60;2.40;;;18.90;99.90;;;;;;5079981;28;20430;-65
2022/07/01 06:54:04;;;;;;;3.30;3.00;;;18.80;99.90;;;;;;5080554;28;20521;-64
2022/07/01 06:56:37;;;;;;;2.83;2.53;;;18.80;99.90;;;;;;5079445;28;20476;-65
2022/07/01 06:59:07;;;;;;;2.40;2.20;;;18.70;99.90;;;;;;5080825;28;20513;-65
2022/07/01 07:01:38;;;;;;;3.17;2.90;;;18.70;99.90;;;;;;5079727;28;20448;-65
2022/07/01 07:04:09;;;;;;;3.20;2.83;;;18.50;99.90;;;;;;5080570;28;20418;-65
2022/07/01 07:06:40;;;;;;;2.50;2.30;;;18.50;99.90;;;;;;5079117;28;20459;-65
2022/07/01 07:09:11;;;;;;;3.87;2.87;;;18.40;99.90;;;;;;5076288;28;20468;-64
2022/07/01 07:11:43;;;;;;;2.57;2.37;;;18.40;99.90;;;;;;5079356;28;20851;-65
2022/07/01 07:14:14;;;;;;;3.30;2.90;;;18.40;99.90;;;;;;5080093;28;20467;-64
2022/07/01 07:16:45;;;;;;;3.23;2.93;;;18.30;99.90;;;;;;5079057;28;20458;-65
2022/07/01 07:19:16;;;;;;;4.13;3.40;;;18.30;99.90;;;;;;5074126;28;20540;-65
2022/07/01 07:21:47;;;;;;;2.77;2.57;;;18.30;99.90;;;;;;5083097;28;20440;-64
2022/07/01 07:24:18;;;;;;;2.73;2.53;;;18.20;99.90;;;;;;5083769;28;20566;-64
2022/07/01 07:26:51;;;;;;;2.30;2.10;;;18.30;99.90;;;;;;5079778;28;20546;-64
2022/07/01 07:29:21;;;;;;;3.03;2.67;;;18.10;99.90;;;;;;5084299;28;20437;-64
2022/07/01 07:31:52;;;;;;;3.17;2.87;;;18.10;99.90;;;;;;5084201;28;20451;-65
2022/07/01 07:34:23;;;;;;;2.63;2.43;;;18.10;99.90;;;;;;5083777;28;20433;-64
2022/07/01 07:36:54;;;;;;;3.27;2.70;;;18.00;99.90;;;;;;5077158;28;20826;-64
2022/07/01 07:39:24;;;;;;;3.17;2.90;;;17.90;99.90;;;;;;5083181;28;20766;-64
2022/07/01 07:42:04;;;;;;;3.27;2.97;;;17.90;99.90;;;;;;5081527;28;20489;-63
2022/07/01 07:44:39;;;;;;;3.13;2.83;;;17.80;99.90;;;;;;5083462;28;21351;-64
2022/07/01 07:47:10;;;;;;;2.73;2.50;;;17.80;99.90;;;;;;5080940;28;20566;-63
2022/07/01 07:49:41;;;;;;;2.30;2.10;;;17.80;99.90;;;;;;5083732;28;20519;-63
2022/07/01 07:52:12;;;;;;;3.77;2.80;;;17.70;99.90;;;;;;5083061;28;20463;-62
2022/07/01 07:54:43;;;;;;;3.47;2.97;;;17.70;99.90;;;;;;5081261;28;20465;-63
2022/07/01 07:57:15;;;;;;;2.93;2.63;;;17.70;99.90;;;;;;5080202;28;20467;-65
2022/07/01 07:59:46;;;;;;;2.53;2.23;;;17.60;99.90;;;;;;5081901;28;20446;-63
2022/07/01 08:02:17;;;;;;;2.80;2.60;;;17.50;99.90;;;;;;5076202;28;20463;-65
2022/07/01 08:04:54;;;;;;;3.40;2.80;;;17.50;99.90;;;;;;5082377;28;20421;-63
2022/07/01 08:07:27;;;;;;;3.03;2.83;;;17.40;99.90;;;;;;5082165;28;20467;-63
2022/07/01 08:09:58;;;;;;;5.17;2.90;;;17.40;99.90;;;;;;5082829;28;20534;-63
2022/07/01 08:12:30;;;;;;;3.17;2.67;;;17.30;99.90;;;;;;5083229;28;20799;-62
2022/07/01 08:15:04;;;;;;;3.00;2.70;;;17.30;99.90;;;;;;5082017;28;20494;-63
2022/07/01 08:17:35;;;;;;;3.20;2.80;;;17.30;99.90;;;;;;5083261;28;20478;-63
2022/07/01 08:20:07;;;;;;;3.13;2.57;;;17.20;99.90;;;;;;5081928;28;20460;-64
2022/07/01 08:22:43;;;;;;;3.00;2.67;;;17.20;99.90;;;;;;5082863;28;20470;-63
2022/07/01 08:25:14;;;;;;;2.83;2.63;;;17.20;99.90;;;;;;5082177;28;20561;-63
2022/07/01 08:27:46;;;;;;;3.23;2.87;;;17.20;99.90;;;;;;5082934;28;20449;-63
2022/07/01 08:30:20;;;;;;;3.47;2.97;;;17.20;99.90;;;;;;5081549;28;20453;-64
2022/07/01 08:32:54;;;;;;;3.40;3.10;;;17.10;99.90;;;;;;5083675;28;20434;-64
2022/07/01 08:35:25;;;;;;;3.90;2.73;;;17.00;99.90;;;;;;5080984;28;20461;-63
2022/07/01 08:37:56;;;;;;;3.03;2.73;;;17.00;99.90;;;;;;5075099;28;20455;-64
2022/07/01 08:40:30;;;;;;;2.60;2.30;;;17.00;99.90;;;;;;5082881;28;20467;-63
2022/07/01 08:43:04;;;;;;;4.20;3.23;;;17.00;99.90;;;;;;5067850;28;20460;-65
2022/07/01 08:45:37;;;;;;;3.40;3.10;;;16.90;99.90;;;;;;5083083;28;20515;-63
2022/07/01 08:48:08;;;;;;;2.17;2.00;;;16.80;99.90;;;;;;5082237;28;20426;-63
2022/07/01 08:50:40;;;;;;;3.57;3.10;;;16.80;99.90;;;;;;5078169;28;20447;-63
2022/07/01 08:53:12;;;;;;;2.93;2.67;;;16.70;99.90;;;;;;5081851;28;20512;-63
2022/07/01 08:58:32;;;;;;;3.30;2.90;;;16.60;99.90;;;;;;5082346;28;20470;-63
2022/07/01 09:01:20;;;;;;;3.20;2.70;;;16.60;99.90;;;;;;5081890;28;20507;-63
2022/07/01 09:03:52;;;;;;;2.93;2.73;;;16.60;99.90;;;;;;5079748;28;20473;-63
2022/07/01 09:06:25;;;;;;;3.00;2.47;;;16.50;99.90;;;;;;5079696;28;20523;-65
2022/07/01 09:09:13;;;;;;;3.07;2.23;;;16.50;99.90;;;;;;5081819;28;20460;-63
2022/07/01 09:11:53;;;;;;;3.40;2.70;;;16.40;99.90;;;;;;5082202;28;20459;-63
2022/07/01 09:14:26;;;;;;;2.63;2.43;;;16.40;99.90;;;;;;5081509;28;20460;-63
2022/07/01 09:16:58;;;;;;;2.90;2.53;;;16.40;99.90;;;;;;5081190;28;22293;-63
2022/07/01 09:19:33;;;;;;;2.50;2.30;;;16.40;99.90;;;;;;5081940;28;20446;-63
2022/07/01 09:22:06;;;;;;;3.00;2.73;;;16.30;99.90;;;;;;5079801;28;20930;-63
2022/07/01 09:24:37;;;;;;;2.90;2.60;;;16.30;99.90;;;;;;5082033;28;20853;-64
2022/07/01 09:27:13;;;;;;;2.53;2.33;;;16.20;99.90;;;;;;5081803;28;20482;-63
2022/07/01 09:29:47;;;;;;;3.23;2.97;;;16.10;99.90;;;;;;5075731;28;20451;-63
2022/07/01 09:32:20;;;;;;;3.00;2.70;;;16.10;99.90;;;;;;5081520;28;20486;-63
2022/07/01 09:34:53;;;;;;;4.13;2.13;;;16.10;99.90;;;;;;5081021;28;20467;-63
2022/07/01 09:37:27;;;;;;;3.40;3.10;;;16.10;99.90;;;;;;5080369;28;20813;-63
2022/07/01 09:40:01;;;;;;;3.77;2.77;;;16.20;99.90;;;;;;5081659;28;20619;-63
2022/07/01 09:42:33;;;;;;;3.07;2.67;;;16.10;99.90;;;;;;5080155;28;20494;-64
2022/07/01 09:45:09;;;;;;;2.50;2.30;;;16.10;99.90;;;;;;5080608;28;20471;-63
2022/07/01 09:47:42;;;;;;;2.87;2.60;;;16.10;99.90;;;;;;5080121;28;20466;-63
2022/07/01 09:50:13;;;;;;;2.97;2.40;;;16.00;99.90;;;;;;5078844;28;20437;-63
2022/07/01 09:52:44;;;;;;;2.90;2.60;;;16.00;99.90;;;;;;5080998;28;20510;-62
2022/07/01 09:55:15;;;;;;;3.47;3.00;;;15.90;99.90;;;;;;5074357;28;20474;-63
2022/07/01 09:57:46;;;;;;;4.20;2.40;;;15.90;99.90;;;;;;5079569;28;20501;-64
2022/07/01 10:00:20;;;;;;;3.20;2.80;;;15.90;99.90;;;;;;5081551;28;20430;-63
2022/07/01 10:02:52;;;;;;;3.20;2.90;;;15.90;99.90;;;;;;5080961;28;20494;-63
2022/07/01 10:05:25;;;;;;;2.67;2.47;;;15.80;99.90;;;;;;5079183;28;20551;-63
2022/07/01 10:08:07;;;;;;;3.27;2.97;;;15.70;99.90;;;;;;5080901;28;20849;-63
2022/07/01 10:10:46;;;;;;;2.50;2.20;;;15.70;99.90;;;;;;5080438;28;20445;-63
2022/07/01 10:13:19;;;;;;;3.43;3.00;;;15.60;99.90;;;;;;5081423;28;20455;-63
2022/07/01 10:15:52;;;;;;;2.63;2.43;;;15.60;99.90;;;;;;5081270;28;20452;-63
2022/07/01 10:18:25;;;;;;;2.87;2.57;;;15.60;99.90;;;;;;5079872;28;20463;-62
2022/07/01 10:20:57;;;;;;;2.97;2.67;;;15.50;99.90;;;;;;5080580;28;20951;-62
2022/07/01 10:23:39;;;;;;;2.30;2.10;;;15.50;99.90;;;;;;5079825;28;20470;-62
2022/07/01 10:26:10;;;;;;;2.30;2.10;;;15.60;99.90;;;;;;5079912;28;20492;-62
2022/07/01 10:28:46;;;;;;;2.80;2.60;;;15.50;99.90;;;;;;5080658;28;20443;-63
2022/07/01 10:31:20;;;;;;;3.70;2.33;;;15.40;99.90;;;;;;5081284;28;20449;-64
2022/07/01 10:33:52;;;;;;;2.40;2.20;;;15.40;99.90;;;;;;5081466;28;20477;-63
2022/07/01 10:36:29;;;;;;;2.80;2.60;;;15.30;99.90;;;;;;5080427;28;20467;-63
2022/07/01 10:39:22;;;;;;;3.67;2.93;;;15.30;99.90;;;;;;5079332;28;20466;-63
2022/07/01 10:42:05;;;;;;;2.53;2.13;;;15.30;99.90;;;;;;5080391;28;20846;-63
2022/07/01 10:45:06;;;;;;;3.40;3.00;;;15.30;99.90;;;;;;5080832;28;20463;-62
2022/07/01 10:47:41;;;;;;;3.07;2.60;;;15.20;99.90;;;;;;5079700;28;20453;-63
2022/07/01 10:50:15;;;;;;;3.53;2.80;;;15.10;99.90;;;;;;5083520;28;20455;-63
2022/07/01 10:53:02;;;;;;;3.07;2.77;;;15.10;99.90;;;;;;5084573;28;20450;-63
2022/07/01 10:55:40;;;;;;;2.80;2.60;;;15.10;99.90;;;;;;5084787;28;20455;-63
2022/07/01 10:58:11;;;;;;;4.30;2.97;;;15.00;99.90;;;;;;5084614;28;20498;-63
2022/07/01 11:00:45;;;;;;;3.23;2.93;;;15.00;99.90;;;;;;5083004;28;20463;-62
2022/07/01 11:03:20;;;;;;;3.10;2.80;;;14.90;99.90;;;;;;5082623;28;20450;-63
2022/07/01 11:05:55;;;;;;;3.47;2.70;;;14.90;99.90;;;;;;5082387;28;20494;-63
2022/07/01 11:08:27;;;;;;;2.90;2.47;;;14.90;99.90;;;;;;5079739;28;20566;-63
2022/07/01 11:11:05;;;;;;;7.63;3.37;;;14.80;99.90;;;;;;5078677;28;20459;-63
2022/07/01 11:13:37;;;;;;;3.00;2.70;;;14.70;99.90;;;;;;5084184;28;20459;-64
2022/07/01 11:16:10;;;;;;;2.67;2.47;;;14.70;99.90;;;;;;5083306;28;20459;-62
2022/07/01 11:18:42;;;;;;;3.40;2.43;;;14.70;99.90;;;;;;5083841;28;20486;-62
2022/07/01 11:21:13;;;;;;;2.63;2.43;;;14.70;99.90;;;;;;5083710;28;20463;-62
2022/07/01 11:23:56;;;;;;;3.10;2.70;;;14.70;99.90;;;;;;5084710;28;20459;-63
2022/07/01 11:26:36;;;;;;;3.20;2.60;;;14.70;99.90;;;;;;5081679;28;20542;-64
2022/07/01 11:29:18;;;;;;;2.90;2.50;;;14.70;99.90;;;;;;5083513;28;20485;-63
2022/07/01 11:31:57;;;;;;;2.60;2.20;;;14.70;99.90;;;;;;5076070;28;20497;-63
2022/07/01 11:34:36;;;;;;;3.00;2.70;;;14.70;99.90;;;;;;5083429;28;20489;-64
2022/07/01 11:40:14;;;;;;;4.93;2.63;;;14.70;99.90;;;;;;5081802;28;20463;-64
2022/07/01 11:42:46;;;;;;;2.90;2.40;;;14.70;99.90;;;;;;5084366;28;20477;-66
2022/07/01 11:45:30;;;;;;;2.93;2.63;;;14.60;99.90;;;;;;5084190;28;20467;-66
2022/07/01 11:48:07;;;;;;;3.80;3.20;;;14.60;99.90;;;;;;5081933;28;20527;-65
2022/07/01 11:50:39;;;;;;;2.40;2.20;;;14.70;99.90;;;;;;5079848;28;20471;-66
2022/07/01 11:53:10;;;;;;;4.63;3.43;;;14.70;99.90;;;;;;5085149;28;20462;-64
2022/07/01 11:55:47;;;;;;;3.50;2.90;;;14.80;99.90;;;;;;5079927;28;20463;-66
2022/07/01 11:58:18;;;;;;;2.83;2.50;;;14.80;99.90;;;;;;5077743;28;20506;-66
2022/07/01 12:00:49;;;;;;;3.97;2.53;;;14.80;99.90;;;;;;5082452;28;20467;-64
2022/07/01 12:03:33;;;;;;;3.00;2.60;;;14.80;99.90;;;;;;5084278;28;20800;-64
2022/07/01 12:06:06;;;;;;;3.27;2.97;;;15.00;99.90;;;;;;5080467;28;20463;-64
2022/07/01 12:08:38;;;;;;;3.30;2.27;;;15.00;99.90;;;;;;5083851;28;20444;-66
2022/07/01 12:11:09;;;;;;;2.77;2.57;;;15.10;99.90;;;;;;5083118;28;20436;-64
2022/07/01 12:13:40;;;;;;;3.57;3.27;;;15.10;99.90;;;;;;5083322;28;20463;-64
2022/07/01 12:16:13;;;;;;;3.83;2.93;;;15.20;99.90;;;;;;5083297;28;20481;-64
2022/07/01 12:18:58;;;;;;;3.37;2.97;;;15.20;99.90;;;;;;5064852;28;20491;-65
2022/07/01 12:21:32;;;;;;;4.10;3.70;;;15.20;99.90;;;;;;5082304;28;20471;-65
2022/07/01 12:24:11;;;;;;;3.57;3.10;;;15.20;99.90;;;;;;5082838;28;20474;-66
2022/07/01 12:27:03;;;;;;;3.30;2.90;;;15.30;99.90;;;;;;5084017;28;20435;-65
2022/07/01 12:29:51;;;;;;;3.50;3.20;;;15.30;99.90;;;;;;5082511;28;20531;-66
2022/07/01 12:32:24;;;;;;;3.63;3.00;;;15.30;99.90;;;;;;5082389;28;20470;-66
2022/07/01 12:34:56;;;;;;;5.30;3.77;;;15.40;99.90;;;;;;5082830;28;20796;-66
2022/07/01 12:37:34;;;;;;;6.27;5.63;;;15.40;99.90;;;;;;5071723;28;20501;-66
2022/07/01 12:40:07;;;;;;;4.43;3.80;;;15.50;99.90;;;;;;5081292;28;20469;-65
2022/07/01 12:42:40;;;;;;;3.43;3.10;;;15.50;99.90;;;;;;5082958;28;20449;-66
2022/07/01 12:45:12;;;;;;;4.17;3.77;;;15.50;99.90;;;;;;5078267;28;20462;-65
2022/07/01 12:47:46;;;;;;;3.43;3.13;;;15.40;99.90;;;;;;5083274;28;20465;-65
2022/07/01 12:50:19;;;;;;;4.20;3.80;;;15.50;99.90;;;;;;5081297;28;20463;-63
2022/07/01 12:53:02;;;;;;;4.43;3.00;;;15.50;99.90;;;;;;5082424;28;20478;-64
2022/07/01 12:55:35;;;;;;;5.00;3.93;;;15.50;99.90;;;;;;5082359;28;20489;-64
2022/07/01 12:58:08;;;;;;;3.53;3.13;;;15.60;99.90;;;;;;5082528;28;20558;-64
2022/07/01 13:00:41;;;;;;;4.10;3.57;;;15.60;99.90;;;;;;5080989;28;20456;-64
2022/07/01 13:03:13;;;;;;;5.10;3.27;;;15.60;99.90;;;;;;5082565;28;20528;-64
2022/07/01 13:05:44;;;;;;;3.37;3.07;;;15.60;99.90;;;;;;5079853;28;20841;-64
2022/07/01 13:08:16;;;;;;;3.17;2.87;;;15.70;99.90;;;;;;5083239;28;20818;-64
2022/07/01 13:10:49;;;;;;;3.83;3.33;;;15.70;99.90;;;;;;5079773;28;20444;-64
2022/07/01 13:13:20;;;;;;;4.90;3.60;;;15.60;99.90;;;;;;5082312;28;20472;-65
2022/07/01 13:15:55;;;;;;;4.13;3.73;;;15.70;99.90;;;;;;5080566;28;20461;-65
2022/07/01 13:18:26;;;;;;;4.47;3.47;;;15.70;99.90;;;;;;5082779;28;20483;-65
2022/07/01 13:20:57;;;;;;;3.73;3.23;;;15.60;99.90;;;;;;5080885;28;20464;-65
2022/07/01 13:23:29;;;;;;;4.40;3.70;;;15.80;99.90;;;;;;5080490;28;20480;-64
2022/07/01 13:26:03;;;;;;;4.40;4.00;;;15.90;99.90;;;;;;5080464;28;20471;-65
2022/07/01 13:28:34;;;;;;;3.43;3.00;;;15.90;99.90;;;;;;5081726;28;20464;-65
2022/07/01 13:31:05;;;;;;;4.17;3.63;;;16.00;99.90;;;;;;5073437;28;20443;-65
2022/07/01 13:33:48;;;;;;;4.03;3.03;;;16.00;99.90;;;;;;5128521;27;20694;-63